Time;durP1;ratioP1;P1;durP2;ratioP2;P2;SDS_P1;SDS_P2;PMS_P1;PMS_P2;Temp;Humidity;BMP_temperature;BMP_pressure;BME280_temperature;BME280_humidity;BME280_pressure;Samples;Min_cycle;Max_cycle;Signal;HPM_P1;HPM_P2
2021/03/14 00:00:46;;;;;;;4.97;2.00;;;6.00;75.90;;;;;;2038799;28;20430;-70
2021/03/14 00:01:46;;;;;;;5.30;1.90;;;6.00;76.30;;;;;;2039033;29;20107;-71
2021/03/14 00:02:47;;;;;;;7.55;2.00;;;6.00;76.60;;;;;;2039309;28;20023;-71
2021/03/14 00:03:47;;;;;;;6.50;2.15;;;6.00;76.30;;;;;;2038710;29;20090;-70
2021/03/14 00:04:48;;;;;;;5.28;1.90;;;6.10;76.20;;;;;;2031916;28;20080;-70
2021/03/14 00:05:50;;;;;;;4.80;1.85;;;6.10;75.90;;;;;;2032023;28;20031;-70
2021/03/14 00:06:50;;;;;;;7.07;2.10;;;6.10;76.10;;;;;;2031929;29;20028;-70
2021/03/14 00:07:51;;;;;;;6.70;2.22;;;6.10;76.10;;;;;;2031894;28;20024;-70
2021/03/14 00:08:51;;;;;;;7.70;2.10;;;6.10;76.30;;;;;;2031816;28;20024;-70
2021/03/14 00:09:52;;;;;;;6.22;1.92;;;6.10;76.30;;;;;;2031930;28;20036;-70
2021/03/14 00:10:55;;;;;;;7.05;2.00;;;6.00;76.40;;;;;;2038863;28;20403;-70
2021/03/14 00:11:56;;;;;;;5.70;1.88;;;6.00;76.80;;;;;;2038799;29;20026;-70
2021/03/14 00:12:57;;;;;;;5.05;1.83;;;6.00;76.80;;;;;;2032021;28;20036;-70
2021/03/14 00:13:57;;;;;;;5.88;2.20;;;6.00;77.10;;;;;;2031601;29;20113;-70
2021/03/14 00:14:58;;;;;;;5.50;2.00;;;6.00;77.30;;;;;;2031980;28;20059;-70
2021/03/14 00:15:59;;;;;;;4.05;1.92;;;6.00;77.40;;;;;;2031798;28;20037;-70
2021/03/14 00:17:00;;;;;;;5.32;2.10;;;6.00;77.30;;;;;;2031890;29;20052;-70
2021/03/14 00:18:00;;;;;;;4.47;1.92;;;6.00;77.40;;;;;;2031894;28;20039;-70
2021/03/14 00:19:01;;;;;;;6.22;2.03;;;6.00;77.50;;;;;;2031889;28;20029;-71
2021/03/14 00:20:04;;;;;;;6.35;2.05;;;6.00;78.00;;;;;;2031960;28;20079;-70
2021/03/14 00:21:05;;;;;;;6.30;2.20;;;6.00;77.80;;;;;;2031594;29;20028;-70
2021/03/14 00:22:06;;;;;;;6.30;2.17;;;6.00;78.00;;;;;;2032559;29;20020;-70
2021/03/14 00:23:07;;;;;;;6.88;2.25;;;6.00;78.00;;;;;;2033302;28;20064;-70
2021/03/14 00:24:08;;;;;;;4.90;2.10;;;6.00;78.10;;;;;;2032933;28;20032;-70
2021/03/14 00:25:12;;;;;;;4.28;2.10;;;6.00;77.90;;;;;;2033523;28;20028;-70
2021/03/14 00:26:14;;;;;;;5.15;2.10;;;6.00;78.20;;;;;;2032760;29;20024;-70
2021/03/14 00:27:15;;;;;;;3.45;2.20;;;6.00;78.30;;;;;;2032675;29;20035;-70
2021/03/14 00:28:18;;;;;;;5.20;2.22;;;6.00;78.30;;;;;;2033345;28;20063;-70
2021/03/14 00:29:18;;;;;;;4.20;2.17;;;6.00;77.90;;;;;;2033818;29;20040;-70
2021/03/14 00:30:19;;;;;;;7.18;2.28;;;6.00;78.10;;;;;;2033687;28;20056;-71
2021/03/14 00:31:20;;;;;;;5.10;2.38;;;6.00;77.80;;;;;;2033067;29;20170;-71
2021/03/14 00:32:21;;;;;;;7.35;2.60;;;6.00;77.70;;;;;;2033779;28;20670;-71
2021/03/14 00:33:21;;;;;;;6.40;2.55;;;6.00;77.80;;;;;;2033207;28;20058;-71
2021/03/14 00:34:22;;;;;;;5.57;2.20;;;6.10;77.80;;;;;;2033297;28;20135;-71
2021/03/14 00:35:23;;;;;;;5.38;2.30;;;6.10;77.80;;;;;;2040592;28;20032;-71
2021/03/14 00:36:24;;;;;;;5.72;2.30;;;6.10;77.60;;;;;;2040772;28;20028;-70
2021/03/14 00:37:24;;;;;;;6.90;2.13;;;6.00;77.80;;;;;;2040813;29;20114;-71
2021/03/14 00:38:25;;;;;;;5.32;2.00;;;6.00;77.90;;;;;;2033513;29;20043;-71
2021/03/14 00:39:25;;;;;;;4.90;2.25;;;6.00;77.70;;;;;;2033373;28;20736;-70
2021/03/14 00:40:27;;;;;;;6.25;2.30;;;6.00;78.00;;;;;;2033329;28;20551;-70
2021/03/14 00:41:27;;;;;;;5.90;2.50;;;6.00;78.30;;;;;;2032891;28;20032;-70
2021/03/14 00:42:28;;;;;;;5.97;2.40;;;6.00;78.30;;;;;;2033307;28;20395;-70
2021/03/14 00:43:28;;;;;;;6.03;2.33;;;6.00;78.20;;;;;;2032697;28;20044;-70
2021/03/14 00:44:29;;;;;;;6.68;2.38;;;6.00;78.10;;;;;;2033172;29;20022;-71
2021/03/14 00:45:33;;;;;;;5.72;2.33;;;6.00;78.10;;;;;;2032290;28;20115;-70
2021/03/14 00:46:34;;;;;;;5.90;2.30;;;6.00;77.90;;;;;;2032619;29;20203;-69
2021/03/14 00:47:36;;;;;;;5.88;2.60;;;6.00;77.80;;;;;;2040210;28;20031;-69
2021/03/14 00:48:36;;;;;;;4.80;2.08;;;6.00;77.60;;;;;;2040203;29;20040;-69
2021/03/14 00:49:37;;;;;;;5.35;2.30;;;6.10;77.50;;;;;;2033050;28;20031;-69
2021/03/14 00:50:41;;;;;;;4.70;2.28;;;6.10;77.50;;;;;;2040030;28;20028;-69
2021/03/14 00:51:45;;;;;;;8.50;2.40;;;6.10;77.40;;;;;;2040069;28;20582;-70
2021/03/14 00:52:46;;;;;;;5.90;2.30;;;6.10;77.20;;;;;;2032405;28;20098;-69
2021/03/14 00:53:47;;;;;;;9.02;2.35;;;6.10;77.10;;;;;;2024145;29;20048;-69
2021/03/14 00:54:54;;;;;;;5.53;2.30;;;6.10;77.20;;;;;;2025467;29;20037;-70
2021/03/14 00:55:54;;;;;;;5.63;2.40;;;6.10;77.40;;;;;;2032318;29;20120;-69
2021/03/14 00:56:55;;;;;;;6.53;2.40;;;6.10;77.20;;;;;;2040268;29;20035;-69
2021/03/14 00:57:56;;;;;;;5.63;2.30;;;6.10;77.10;;;;;;2040325;28;20095;-69
2021/03/14 00:58:56;;;;;;;6.32;2.55;;;6.10;77.00;;;;;;2040194;28;20051;-70
2021/03/14 00:59:58;;;;;;;6.07;2.38;;;6.10;77.20;;;;;;2040215;29;20020;-70
2021/03/14 01:00:59;;;;;;;4.47;2.08;;;6.20;77.10;;;;;;2040053;28;20044;-69
2021/03/14 01:02:00;;;;;;;7.18;2.42;;;6.20;77.10;;;;;;2040073;28;20087;-69
2021/03/14 01:03:01;;;;;;;5.30;2.35;;;6.20;77.20;;;;;;2040226;29;20078;-69
2021/03/14 01:04:09;;;;;;;8.27;2.20;;;6.10;77.40;;;;;;2039661;28;20031;-70
2021/03/14 01:05:10;;;;;;;7.30;2.40;;;6.20;77.30;;;;;;2040136;29;20043;-69
2021/03/14 01:06:11;;;;;;;7.30;2.50;;;6.10;77.40;;;;;;2040157;28;20031;-69
2021/03/14 01:07:12;;;;;;;5.78;2.20;;;6.20;77.50;;;;;;2039973;29;20600;-69
2021/03/14 01:08:16;;;;;;;5.20;2.40;;;6.20;77.20;;;;;;2032993;28;20036;-69
2021/03/14 01:09:17;;;;;;;5.55;2.30;;;6.30;77.10;;;;;;2032504;28;20032;-69
2021/03/14 01:10:19;;;;;;;8.43;2.50;;;6.30;77.40;;;;;;2032361;29;20103;-70
2021/03/14 01:11:21;;;;;;;6.85;2.35;;;6.30;76.90;;;;;;2039626;28;20479;-70
2021/03/14 01:12:40;;;;;;;6.50;2.60;;;6.30;76.70;;;;;;2032132;29;20032;-69
2021/03/14 01:13:48;;;;;;;7.25;2.50;;;6.40;76.40;;;;;;2033098;29;20043;-69
2021/03/14 01:14:51;;;;;;;7.25;2.58;;;6.40;76.40;;;;;;2039894;28;20031;-69
2021/03/14 01:16:08;;;;;;;6.13;2.42;;;6.40;76.20;;;;;;2026635;29;20484;-69
2021/03/14 01:17:09;;;;;;;6.25;2.63;;;6.40;76.30;;;;;;2032344;29;20028;-70
2021/03/14 01:18:11;;;;;;;7.40;2.47;;;6.40;76.40;;;;;;2033121;28;20059;-69
2021/03/14 01:19:12;;;;;;;6.95;2.60;;;6.40;76.30;;;;;;2040126;29;20043;-69
2021/03/14 01:20:19;;;;;;;7.28;2.50;;;6.40;76.30;;;;;;2040063;29;20048;-69
2021/03/14 01:21:20;;;;;;;6.85;2.50;;;6.40;76.60;;;;;;2032730;29;20467;-70
2021/03/14 01:22:20;;;;;;;5.72;2.40;;;6.40;76.60;;;;;;2033032;28;20036;-69
2021/03/14 01:23:21;;;;;;;4.47;2.30;;;6.30;76.80;;;;;;2032458;28;20024;-70
2021/03/14 01:24:22;;;;;;;6.63;2.63;;;6.30;76.70;;;;;;2040295;28;20028;-69
2021/03/14 01:25:22;;;;;;;5.55;2.25;;;6.30;76.90;;;;;;2039945;29;20024;-69
2021/03/14 01:26:23;;;;;;;7.13;3.03;;;6.30;77.00;;;;;;2032861;28;20394;-69
2021/03/14 01:27:24;;;;;;;7.03;3.20;;;6.30;77.20;;;;;;2032848;28;20439;-69
2021/03/14 01:28:25;;;;;;;5.90;2.60;;;6.30;77.30;;;;;;2032935;29;20032;-70
2021/03/14 01:29:26;;;;;;;5.90;2.72;;;6.30;77.30;;;;;;2032809;28;20419;-69
2021/03/14 01:30:26;;;;;;;7.35;2.67;;;6.20;77.20;;;;;;2032795;28;20124;-69
2021/03/14 01:31:27;;;;;;;6.85;2.50;;;6.20;77.60;;;;;;2032529;28;20033;-69
2021/03/14 01:32:27;;;;;;;4.07;2.40;;;6.20;77.90;;;;;;2032956;28;20432;-69
2021/03/14 01:33:28;;;;;;;7.38;2.70;;;6.20;78.10;;;;;;2032435;28;20063;-69
2021/03/14 01:34:29;;;;;;;6.00;2.58;;;6.10;78.50;;;;;;2032312;28;20122;-69
2021/03/14 01:35:29;;;;;;;7.47;2.80;;;6.10;78.50;;;;;;2032587;29;20119;-70
2021/03/14 01:36:30;;;;;;;8.88;2.70;;;6.00;78.50;;;;;;2033216;29;20032;-69
2021/03/14 01:37:30;;;;;;;7.43;2.78;;;6.10;78.50;;;;;;2033102;28;20032;-70
2021/03/14 01:38:31;;;;;;;6.97;2.72;;;6.10;78.60;;;;;;2033212;28;20060;-69
2021/03/14 01:39:31;;;;;;;5.68;2.50;;;6.00;78.70;;;;;;2033128;28;20040;-69
2021/03/14 01:40:33;;;;;;;6.60;2.53;;;6.00;78.90;;;;;;2033085;28;20024;-69
2021/03/14 01:41:33;;;;;;;6.30;2.63;;;6.00;78.80;;;;;;2040116;29;20032;-70
2021/03/14 01:42:34;;;;;;;11.55;2.72;;;6.00;78.70;;;;;;2040266;29;20031;-70
2021/03/14 01:43:36;;;;;;;6.97;2.70;;;6.00;78.70;;;;;;2032439;29;20111;-69
2021/03/14 01:44:37;;;;;;;7.25;2.60;;;6.00;78.80;;;;;;2033067;29;20034;-69
2021/03/14 01:45:37;;;;;;;8.55;2.72;;;6.00;78.70;;;;;;2033023;29;20309;-70
2021/03/14 01:46:38;;;;;;;5.93;2.50;;;6.00;78.80;;;;;;2040375;28;20031;-70
2021/03/14 01:47:47;;;;;;;6.38;2.53;;;6.00;78.60;;;;;;2040415;29;20027;-69
2021/03/14 01:48:48;;;;;;;7.28;2.50;;;6.00;78.70;;;;;;2033369;29;20142;-70
2021/03/14 01:49:49;;;;;;;7.93;2.60;;;6.00;78.70;;;;;;2033148;29;20442;-69
2021/03/14 01:50:50;;;;;;;7.90;2.78;;;6.00;78.80;;;;;;2032931;28;20090;-70
2021/03/14 01:51:51;;;;;;;7.55;2.50;;;6.00;78.50;;;;;;2033141;29;20035;-69
2021/03/14 01:52:53;;;;;;;6.53;2.70;;;6.00;78.40;;;;;;2033259;29;20028;-70
2021/03/14 01:53:53;;;;;;;7.50;2.63;;;6.00;78.10;;;;;;2032702;29;20060;-69
2021/03/14 01:54:54;;;;;;;6.25;2.55;;;6.00;78.40;;;;;;2033140;28;20050;-70
2021/03/14 01:55:55;;;;;;;7.95;3.03;;;6.00;78.10;;;;;;2032658;28;20036;-69
2021/03/14 01:56:56;;;;;;;7.28;2.75;;;6.00;78.20;;;;;;2032812;29;20063;-69
2021/03/14 01:57:56;;;;;;;8.45;2.67;;;6.00;78.30;;;;;;2032803;28;20503;-69
2021/03/14 01:58:57;;;;;;;7.55;2.70;;;6.00;78.40;;;;;;2032715;28;20035;-69
2021/03/14 01:59:58;;;;;;;5.93;2.60;;;6.00;78.00;;;;;;2039972;28;20043;-69
2021/03/14 02:00:59;;;;;;;7.30;2.60;;;6.00;77.80;;;;;;2031848;29;20099;-69
2021/03/14 02:02:00;;;;;;;7.90;2.70;;;6.00;77.90;;;;;;2032002;29;20040;-70
2021/03/14 02:03:00;;;;;;;8.35;2.88;;;6.00;77.90;;;;;;2040024;28;20100;-69
2021/03/14 02:04:01;;;;;;;6.05;2.35;;;6.00;78.20;;;;;;2039475;28;20506;-69
2021/03/14 02:05:04;;;;;;;5.95;2.50;;;6.00;78.50;;;;;;2039856;29;20028;-69
2021/03/14 02:06:05;;;;;;;7.93;2.50;;;6.00;78.20;;;;;;2032479;29;20032;-69
2021/03/14 02:07:06;;;;;;;5.80;2.35;;;6.00;78.20;;;;;;2032679;28;20028;-69
2021/03/14 02:08:07;;;;;;;6.65;2.53;;;5.90;78.10;;;;;;2032721;28;20056;-69
2021/03/14 02:09:07;;;;;;;7.47;2.70;;;5.90;78.30;;;;;;2032672;29;20072;-69
2021/03/14 02:10:10;;;;;;;7.13;2.60;;;5.90;78.30;;;;;;2032555;28;20028;-69
2021/03/14 02:11:10;;;;;;;6.32;2.70;;;5.90;78.10;;;;;;2032295;29;20082;-69
2021/03/14 02:12:15;;;;;;;8.52;2.60;;;5.90;78.10;;;;;;2032607;28;20028;-69
2021/03/14 02:13:30;;;;;;;6.35;2.30;;;5.90;78.10;;;;;;2032358;29;20063;-69
2021/03/14 02:14:33;;;;;;;8.18;2.38;;;5.90;77.90;;;;;;2032110;28;20539;-69
2021/03/14 02:15:43;;;;;;;7.70;2.60;;;5.90;77.90;;;;;;2032054;29;20097;-69
2021/03/14 02:16:46;;;;;;;7.13;2.28;;;5.80;78.30;;;;;;2032748;29;20044;-69
2021/03/14 02:17:47;;;;;;;6.00;2.17;;;5.80;78.10;;;;;;2032636;29;20032;-69
2021/03/14 02:18:53;;;;;;;5.32;2.33;;;5.80;78.00;;;;;;2032638;29;20028;-69
2021/03/14 02:20:10;;;;;;;5.95;2.60;;;5.80;79.00;;;;;;2032684;29;20024;-69
2021/03/14 02:21:12;;;;;;;5.78;2.40;;;5.80;78.40;;;;;;2032456;29;20039;-69
2021/03/14 02:22:12;;;;;;;6.13;2.55;;;5.80;78.40;;;;;;2032514;29;20090;-69
2021/03/14 02:23:21;;;;;;;6.03;2.50;;;5.70;78.40;;;;;;2032294;28;20107;-69
2021/03/14 02:24:25;;;;;;;7.22;2.50;;;5.70;78.40;;;;;;2032458;29;20039;-69
2021/03/14 02:25:37;;;;;;;6.13;2.50;;;5.70;78.30;;;;;;2032456;29;20399;-70
2021/03/14 02:26:47;;;;;;;5.30;2.30;;;5.70;78.10;;;;;;2032697;29;20036;-69
2021/03/14 02:27:48;;;;;;;8.52;2.80;;;5.70;78.00;;;;;;2032618;28;20028;-69
2021/03/14 02:28:52;;;;;;;7.03;2.50;;;5.70;78.00;;;;;;2032779;29;20115;-69
2021/03/14 02:29:54;;;;;;;6.47;2.28;;;5.70;78.10;;;;;;2032600;28;20024;-69
2021/03/14 02:30:55;;;;;;;8.52;2.30;;;5.70;78.10;;;;;;2032260;29;20427;-69
2021/03/14 02:31:56;;;;;;;6.07;2.30;;;5.70;78.20;;;;;;2032426;28;20040;-69
2021/03/14 02:32:58;;;;;;;8.68;2.42;;;5.70;78.60;;;;;;2032620;29;20039;-68
2021/03/14 02:34:04;;;;;;;5.22;2.45;;;5.60;78.50;;;;;;2031868;29;20039;-69
2021/03/14 02:35:07;;;;;;;7.03;2.63;;;5.70;78.30;;;;;;2032011;29;20083;-69
2021/03/14 02:36:11;;;;;;;6.90;2.40;;;5.70;78.10;;;;;;2033154;28;20044;-69
2021/03/14 02:37:13;;;;;;;6.80;2.63;;;5.70;78.00;;;;;;2032571;29;20028;-69
2021/03/14 02:38:14;;;;;;;7.78;2.40;;;5.70;78.00;;;;;;2032418;29;20032;-69
2021/03/14 02:39:20;;;;;;;6.25;2.35;;;5.70;78.50;;;;;;2032712;29;20036;-69
2021/03/14 02:40:21;;;;;;;5.75;2.33;;;5.60;78.70;;;;;;2032521;29;20111;-69
2021/03/14 02:41:24;;;;;;;5.80;2.50;;;5.70;78.50;;;;;;2032209;29;20082;-69
2021/03/14 02:42:26;;;;;;;7.47;2.70;;;5.60;78.50;;;;;;2032424;29;20086;-69
2021/03/14 02:43:27;;;;;;;6.57;2.25;;;5.60;78.50;;;;;;2031988;29;20067;-68
2021/03/14 02:44:37;;;;;;;7.38;2.70;;;5.60;78.70;;;;;;2032081;29;20055;-69
2021/03/14 02:45:39;;;;;;;5.55;2.35;;;5.60;78.80;;;;;;2032364;29;20028;-68
2021/03/14 02:46:42;;;;;;;6.80;2.58;;;5.60;79.10;;;;;;2032431;29;20719;-68
2021/03/14 02:47:43;;;;;;;5.53;2.50;;;5.60;79.10;;;;;;2032425;29;20039;-68
2021/03/14 02:48:44;;;;;;;6.85;2.50;;;5.50;79.00;;;;;;2032347;28;20032;-69
2021/03/14 02:49:48;;;;;;;8.52;2.50;;;5.50;79.20;;;;;;2032424;29;20547;-69
2021/03/14 02:50:49;;;;;;;8.57;2.45;;;5.50;79.20;;;;;;2032142;29;20082;-69
2021/03/14 02:51:51;;;;;;;5.68;2.28;;;5.60;78.90;;;;;;2032469;28;20033;-69
2021/03/14 02:52:53;;;;;;;7.47;2.33;;;5.60;78.90;;;;;;2032404;28;20062;-69
2021/03/14 02:53:55;;;;;;;4.88;2.33;;;5.60;78.80;;;;;;2032044;29;20032;-68
2021/03/14 02:54:58;;;;;;;6.90;2.55;;;5.60;78.90;;;;;;2032443;29;20028;-68
2021/03/14 02:55:58;;;;;;;5.72;2.47;;;5.50;79.30;;;;;;2032157;29;20067;-69
2021/03/14 02:57:00;;;;;;;7.80;2.83;;;5.50;79.40;;;;;;2032518;29;20035;-68
2021/03/14 02:58:01;;;;;;;8.25;2.75;;;5.50;79.40;;;;;;2032313;29;20036;-69
2021/03/14 02:59:03;;;;;;;8.25;2.58;;;5.50;79.50;;;;;;2032452;29;20025;-69
2021/03/14 03:00:11;;;;;;;7.78;2.72;;;5.50;79.80;;;;;;2032213;29;20047;-69
2021/03/14 03:01:12;;;;;;;9.40;2.40;;;5.50;79.40;;;;;;2039369;28;20399;-68
2021/03/14 03:02:13;;;;;;;7.60;2.70;;;5.50;79.30;;;;;;2039371;29;20075;-69
2021/03/14 03:03:14;;;;;;;5.82;2.47;;;5.50;79.40;;;;;;2032095;28;20063;-69
2021/03/14 03:04:17;;;;;;;7.53;2.55;;;5.40;79.60;;;;;;2032359;28;20035;-70
2021/03/14 03:05:20;;;;;;;6.95;2.60;;;5.40;79.60;;;;;;2032213;29;20357;-69
2021/03/14 03:06:21;;;;;;;6.55;2.50;;;5.40;79.80;;;;;;2032401;29;20044;-69
2021/03/14 03:07:23;;;;;;;6.55;2.72;;;5.40;80.00;;;;;;2039494;28;20052;-69
2021/03/14 03:08:25;;;;;;;9.10;2.50;;;5.40;79.70;;;;;;2039268;29;20028;-69
2021/03/14 03:09:27;;;;;;;8.10;2.55;;;5.40;79.70;;;;;;2032320;29;20040;-69
2021/03/14 03:10:35;;;;;;;5.53;2.45;;;5.40;79.60;;;;;;2032041;29;20046;-69
2021/03/14 03:11:37;;;;;;;6.68;2.60;;;5.50;79.60;;;;;;2032206;29;20407;-69
2021/03/14 03:12:38;;;;;;;7.35;2.65;;;5.40;79.70;;;;;;2032400;28;20035;-68
2021/03/14 03:13:39;;;;;;;5.90;2.50;;;5.50;79.80;;;;;;2032144;29;20035;-69
2021/03/14 03:14:42;;;;;;;6.38;2.30;;;5.50;79.60;;;;;;2032190;29;20047;-69
2021/03/14 03:15:44;;;;;;;6.03;2.40;;;5.50;79.80;;;;;;2032306;29;20028;-69
2021/03/14 03:16:50;;;;;;;10.85;2.80;;;5.40;79.70;;;;;;2032382;29;20047;-69
2021/03/14 03:17:52;;;;;;;7.75;2.78;;;5.40;79.90;;;;;;2039566;29;20423;-69
2021/03/14 03:18:52;;;;;;;5.03;2.60;;;5.40;80.10;;;;;;2039504;29;20578;-69
2021/03/14 03:19:55;;;;;;;5.82;2.72;;;5.40;81.00;;;;;;2032322;28;20028;-68
2021/03/14 03:20:56;;;;;;;5.93;2.67;;;5.40;80.30;;;;;;2032079;29;20025;-68
2021/03/14 03:21:56;;;;;;;7.13;2.58;;;5.40;80.40;;;;;;2032147;29;20507;-69
2021/03/14 03:22:58;;;;;;;6.47;2.60;;;5.40;80.50;;;;;;2032171;29;20035;-69
2021/03/14 03:24:00;;;;;;;6.50;2.60;;;5.40;80.50;;;;;;2039056;29;20571;-69
2021/03/14 03:25:01;;;;;;;5.03;2.50;;;5.40;80.10;;;;;;2039300;29;20047;-68
2021/03/14 03:26:02;;;;;;;6.10;2.60;;;5.40;79.70;;;;;;2032123;28;20127;-69
2021/03/14 03:27:03;;;;;;;7.07;2.83;;;5.40;80.00;;;;;;2032126;29;20384;-69
2021/03/14 03:28:04;;;;;;;4.88;2.42;;;5.40;80.00;;;;;;2032134;28;20029;-68
2021/03/14 03:29:05;;;;;;;6.32;2.92;;;5.40;79.90;;;;;;2032281;29;20115;-69
2021/03/14 03:30:09;;;;;;;9.32;2.90;;;5.40;80.40;;;;;;2032107;29;20024;-69
2021/03/14 03:31:11;;;;;;;7.70;2.75;;;5.40;80.60;;;;;;2032017;29;20392;-69
2021/03/14 03:32:11;;;;;;;6.65;2.83;;;5.40;80.30;;;;;;2039273;28;20131;-69
2021/03/14 03:33:12;;;;;;;5.97;2.20;;;5.40;80.10;;;;;;2039092;29;20431;-69
2021/03/14 03:34:13;;;;;;;8.32;3.00;;;5.40;80.80;;;;;;2039410;28;20073;-69
2021/03/14 03:35:18;;;;;;;5.22;2.47;;;5.40;80.00;;;;;;2039232;29;20426;-69
2021/03/14 03:36:18;;;;;;;7.40;2.63;;;5.40;80.10;;;;;;2032451;29;20041;-69
2021/03/14 03:37:19;;;;;;;7.05;3.03;;;5.40;80.10;;;;;;2040576;28;20494;-68
2021/03/14 03:38:20;;;;;;;6.57;2.83;;;5.50;80.10;;;;;;2040743;29;20110;-68
2021/03/14 03:39:21;;;;;;;6.45;2.72;;;5.40;80.20;;;;;;2033608;29;20021;-68
2021/03/14 03:40:23;;;;;;;6.53;3.00;;;5.40;80.30;;;;;;2033415;28;20380;-69
2021/03/14 03:41:25;;;;;;;6.32;2.70;;;5.40;80.40;;;;;;2033484;29;20107;-69
2021/03/14 03:42:29;;;;;;;5.47;2.70;;;5.40;80.30;;;;;;2034076;29;20035;-68
2021/03/14 03:43:37;;;;;;;6.32;2.58;;;5.40;81.20;;;;;;2031857;29;20043;-69
2021/03/14 03:44:39;;;;;;;8.18;3.13;;;5.30;80.50;;;;;;2032143;29;20024;-68
2021/03/14 03:45:46;;;;;;;5.20;2.67;;;5.30;80.70;;;;;;2031919;29;20527;-68
2021/03/14 03:46:49;;;;;;;7.47;2.83;;;5.30;80.90;;;;;;2032013;29;20521;-69
2021/03/14 03:47:53;;;;;;;5.70;2.70;;;5.30;81.10;;;;;;2032069;29;20143;-69
2021/03/14 03:48:56;;;;;;;7.63;3.30;;;5.30;81.10;;;;;;2032063;29;20029;-69
2021/03/14 03:49:57;;;;;;;6.45;2.80;;;5.30;80.80;;;;;;2039283;29;20048;-68
2021/03/14 03:51:02;;;;;;;7.68;3.05;;;5.30;80.70;;;;;;2038929;29;20547;-69
2021/03/14 03:52:03;;;;;;;11.73;3.35;;;5.30;80.80;;;;;;2039100;28;20035;-69
2021/03/14 03:53:04;;;;;;;7.95;2.90;;;5.30;81.40;;;;;;2039229;29;20028;-69
2021/03/14 03:54:05;;;;;;;6.72;2.88;;;5.30;80.50;;;;;;2031671;29;20039;-68
2021/03/14 03:55:08;;;;;;;5.90;2.72;;;5.40;80.10;;;;;;2031972;29;20111;-69
2021/03/14 03:56:12;;;;;;;6.82;2.92;;;5.40;80.00;;;;;;2031401;29;20036;-68
2021/03/14 03:57:13;;;;;;;7.25;2.90;;;5.40;79.80;;;;;;2031666;29;20375;-68
2021/03/14 03:58:14;;;;;;;8.57;2.88;;;5.40;79.90;;;;;;2032200;28;20039;-68
2021/03/14 03:59:16;;;;;;;5.88;2.60;;;5.30;80.30;;;;;;2032050;29;20440;-69
2021/03/14 04:00:19;;;;;;;8.13;2.80;;;5.30;79.70;;;;;;2031962;29;20024;-69
2021/03/14 04:01:22;;;;;;;8.60;3.10;;;5.30;79.60;;;;;;2031672;29;20029;-69
2021/03/14 04:02:24;;;;;;;7.20;2.60;;;5.30;79.80;;;;;;2031967;29;20103;-70
2021/03/14 04:03:25;;;;;;;7.47;2.78;;;5.30;80.00;;;;;;2031672;29;20028;-69
2021/03/14 04:04:27;;;;;;;4.82;2.50;;;5.30;79.80;;;;;;2031958;29;20032;-70
2021/03/14 04:05:28;;;;;;;5.25;2.28;;;5.30;79.70;;;;;;2032130;29;20043;-69
2021/03/14 04:06:30;;;;;;;6.78;2.70;;;5.30;79.60;;;;;;2031993;28;20064;-70
2021/03/14 04:07:34;;;;;;;6.50;2.50;;;5.30;79.50;;;;;;2031988;29;20032;-70
2021/03/14 04:08:36;;;;;;;7.10;2.70;;;5.30;79.40;;;;;;2032051;29;20119;-69
2021/03/14 04:09:38;;;;;;;5.85;2.53;;;5.20;79.60;;;;;;2031936;29;20083;-70
2021/03/14 04:10:40;;;;;;;6.00;2.67;;;5.30;79.70;;;;;;2031668;29;20081;-69
2021/03/14 04:11:41;;;;;;;7.18;2.90;;;5.20;80.10;;;;;;2031831;29;20119;-69
2021/03/14 04:12:43;;;;;;;5.70;2.72;;;5.20;80.00;;;;;;2032015;29;20383;-69
2021/03/14 04:13:45;;;;;;;5.80;2.50;;;5.20;80.10;;;;;;2038676;28;20026;-69
2021/03/14 04:14:46;;;;;;;5.40;2.50;;;5.20;80.20;;;;;;2039011;29;20028;-69
2021/03/14 04:15:47;;;;;;;4.93;2.63;;;5.20;81.00;;;;;;2039310;28;20525;-70
2021/03/14 04:16:49;;;;;;;5.15;2.80;;;5.20;80.90;;;;;;2039085;29;20063;-70
2021/03/14 04:17:52;;;;;;;8.82;3.13;;;5.20;81.40;;;;;;2031869;29;20159;-70
2021/03/14 04:18:53;;;;;;;5.88;2.90;;;5.20;81.30;;;;;;2031974;29;20032;-70
2021/03/14 04:19:56;;;;;;;6.40;2.90;;;5.10;81.20;;;;;;2031956;28;20024;-70
2021/03/14 04:20:59;;;;;;;6.22;2.80;;;5.10;81.70;;;;;;2031742;29;20036;-70
2021/03/14 04:22:02;;;;;;;6.50;2.80;;;5.10;82.30;;;;;;2031890;29;20490;-70
2021/03/14 04:23:07;;;;;;;5.45;2.58;;;5.10;82.20;;;;;;2031847;29;20040;-70
2021/03/14 04:24:10;;;;;;;5.18;2.80;;;5.10;82.50;;;;;;2031525;29;20442;-70
2021/03/14 04:25:13;;;;;;;6.28;2.95;;;5.10;82.80;;;;;;2039085;28;20032;-69
2021/03/14 04:26:20;;;;;;;7.35;3.15;;;5.10;83.10;;;;;;2038722;29;20119;-69
2021/03/14 04:27:22;;;;;;;5.45;2.80;;;5.10;83.20;;;;;;2031831;29;20055;-70
2021/03/14 04:28:27;;;;;;;6.05;2.88;;;5.10;83.20;;;;;;2031739;29;20114;-70
2021/03/14 04:29:30;;;;;;;6.13;3.05;;;5.10;83.30;;;;;;2031902;29;20110;-69
2021/03/14 04:30:32;;;;;;;7.05;3.20;;;5.10;83.40;;;;;;2031482;29;20115;-70
2021/03/14 04:31:33;;;;;;;7.25;3.17;;;5.10;83.20;;;;;;2031651;29;20036;-70
2021/03/14 04:32:36;;;;;;;6.32;3.25;;;5.10;82.80;;;;;;2031723;29;20082;-70
2021/03/14 04:33:37;;;;;;;7.32;3.10;;;5.10;82.90;;;;;;2031325;29;20108;-69
2021/03/14 04:34:39;;;;;;;6.97;3.30;;;5.10;83.40;;;;;;2031757;29;20396;-70
2021/03/14 04:35:40;;;;;;;6.25;3.20;;;5.10;83.20;;;;;;2038942;28;20039;-69
2021/03/14 04:36:42;;;;;;;7.45;3.42;;;5.10;83.40;;;;;;2038988;29;20442;-70
2021/03/14 04:37:43;;;;;;;6.90;3.00;;;5.10;83.20;;;;;;2031830;29;20438;-70
2021/03/14 04:38:45;;;;;;;6.40;3.08;;;5.10;83.30;;;;;;2031928;29;20028;-69
2021/03/14 04:39:47;;;;;;;6.20;2.88;;;5.10;83.20;;;;;;2031837;29;20012;-70
2021/03/14 04:40:48;;;;;;;7.53;3.10;;;5.10;82.70;;;;;;2031512;29;20035;-70
2021/03/14 04:41:51;;;;;;;7.43;3.00;;;5.10;82.80;;;;;;2031741;28;20464;-70
2021/03/14 04:42:54;;;;;;;6.97;3.10;;;5.10;83.20;;;;;;2031753;29;20402;-69
2021/03/14 04:43:55;;;;;;;6.55;3.10;;;5.00;83.40;;;;;;2031441;29;20040;-70
2021/03/14 04:44:57;;;;;;;6.60;3.25;;;5.00;83.50;;;;;;2031847;29;20056;-70
2021/03/14 04:45:58;;;;;;;6.22;3.20;;;5.00;83.80;;;;;;2031822;29;20098;-69
2021/03/14 04:46:59;;;;;;;6.15;3.20;;;4.90;83.60;;;;;;2031980;29;20024;-70
2021/03/14 04:48:00;;;;;;;7.13;3.28;;;4.90;83.70;;;;;;2038932;28;20027;-70
2021/03/14 04:49:00;;;;;;;6.90;3.30;;;4.90;84.00;;;;;;2039162;29;20090;-69
2021/03/14 04:50:04;;;;;;;6.40;3.58;;;4.90;84.00;;;;;;2031762;29;20499;-69
2021/03/14 04:51:05;;;;;;;6.45;3.33;;;4.90;84.40;;;;;;2031377;29;20499;-70
2021/03/14 04:52:07;;;;;;;6.15;3.40;;;4.90;84.80;;;;;;2031507;29;20081;-70
2021/03/14 04:53:08;;;;;;;7.20;3.20;;;4.90;84.40;;;;;;2031760;29;20074;-70
2021/03/14 04:54:10;;;;;;;6.97;3.10;;;4.90;84.00;;;;;;2031373;28;20763;-69
2021/03/14 04:55:13;;;;;;;6.63;3.33;;;4.90;84.20;;;;;;2031664;29;20416;-69
2021/03/14 04:56:14;;;;;;;8.35;3.47;;;4.90;84.20;;;;;;2030958;28;20036;-69
2021/03/14 04:57:17;;;;;;;7.30;3.40;;;4.90;84.20;;;;;;2031161;29;20032;-69
2021/03/14 04:58:22;;;;;;;7.63;3.67;;;5.00;84.30;;;;;;2031551;29;20048;-70
2021/03/14 04:59:24;;;;;;;10.45;3.30;;;5.00;84.30;;;;;;2031710;29;20036;-70
2021/03/14 05:00:27;;;;;;;6.78;3.70;;;4.90;84.10;;;;;;2031684;29;20032;-69
2021/03/14 05:01:29;;;;;;;6.47;3.20;;;5.00;84.40;;;;;;2031500;29;20525;-70
2021/03/14 05:02:31;;;;;;;7.43;3.50;;;4.90;84.60;;;;;;2031726;29;20089;-69
2021/03/14 05:03:33;;;;;;;8.32;3.20;;;4.90;84.80;;;;;;2031213;29;20042;-69
2021/03/14 05:04:34;;;;;;;7.63;3.40;;;4.90;84.90;;;;;;2031504;29;20107;-69
2021/03/14 05:05:37;;;;;;;8.98;3.65;;;4.90;84.90;;;;;;2031731;29;20115;-69
2021/03/14 05:06:41;;;;;;;7.80;3.17;;;4.90;85.10;;;;;;2031560;29;20441;-69
2021/03/14 05:07:43;;;;;;;8.20;3.50;;;4.90;84.90;;;;;;2031833;29;20035;-69
2021/03/14 05:08:45;;;;;;;10.15;3.53;;;4.90;84.90;;;;;;2032979;29;20384;-69
2021/03/14 05:09:46;;;;;;;7.88;3.30;;;4.90;85.10;;;;;;2032940;29;20047;-69
2021/03/14 05:10:48;;;;;;;9.63;3.80;;;4.90;84.80;;;;;;2039959;29;20089;-69
2021/03/14 05:11:49;;;;;;;11.05;3.50;;;4.90;84.30;;;;;;2040035;29;20472;-70
2021/03/14 05:12:51;;;;;;;6.68;3.28;;;5.00;83.90;;;;;;2033092;29;20040;-69
2021/03/14 05:13:52;;;;;;;6.70;3.30;;;5.00;83.80;;;;;;2032441;29;20020;-69
2021/03/14 05:14:54;;;;;;;6.80;3.20;;;5.00;83.90;;;;;;2032874;29;20500;-70
2021/03/14 05:15:54;;;;;;;6.80;3.33;;;5.00;83.80;;;;;;2032921;29;20119;-69
2021/03/14 05:16:55;;;;;;;6.30;3.20;;;5.00;83.80;;;;;;2032740;28;20028;-69
2021/03/14 05:17:56;;;;;;;7.45;3.58;;;5.00;83.50;;;;;;2032834;29;20468;-68
2021/03/14 05:18:57;;;;;;;7.68;3.40;;;5.00;83.20;;;;;;2032804;29;20029;-69
2021/03/14 05:19:58;;;;;;;6.88;3.20;;;5.00;83.20;;;;;;2033031;28;20024;-69
2021/03/14 05:20:59;;;;;;;9.32;3.28;;;5.00;83.10;;;;;;2032713;29;20507;-70
2021/03/14 05:22:02;;;;;;;6.95;3.30;;;5.00;83.40;;;;;;2032958;28;20028;-69
2021/03/14 05:23:03;;;;;;;7.07;3.40;;;5.00;83.10;;;;;;2033035;28;20044;-70
2021/03/14 05:24:07;;;;;;;8.07;3.45;;;5.00;83.00;;;;;;2032611;28;20433;-69
2021/03/14 05:25:08;;;;;;;7.28;3.47;;;5.00;83.30;;;;;;2033013;29;20040;-70
2021/03/14 05:26:12;;;;;;;6.45;3.40;;;4.90;83.10;;;;;;2032805;29;20024;-70
2021/03/14 05:27:13;;;;;;;5.68;3.28;;;4.90;83.00;;;;;;2032946;29;20491;-70
2021/03/14 05:28:14;;;;;;;8.45;3.30;;;4.90;82.90;;;;;;2040184;29;20043;-70